Time;durP1;ratioP1;P1;durP2;ratioP2;P2;SDS_P1;SDS_P2;PMS_P1;PMS_P2;Temp;Humidity;BMP_temperature;BMP_pressure;BME280_temperature;BME280_humidity;BME280_pressure;Samples;Min_cycle;Max_cycle;Signal;HPM_P1;HPM_P2
2021/12/12 00:01:20;;;;;;;2.97;1.90;;;;;;;;;;5097323;28;20488;-54
2021/12/12 00:03:52;;;;;;;5.15;2.53;;;;;;;;;;5097045;27;20031;-52
2021/12/12 00:06:34;;;;;;;5.70;2.40;;;;;;;;;;5112039;27;20365;-55
2021/12/12 00:09:09;;;;;;;4.15;2.17;;;;;;;;;;5099420;27;20024;-55
2021/12/12 00:11:36;;;;;;;3.17;1.80;;;;;;;;;;5108392;27;20051;-55
2021/12/12 00:14:12;;;;;;;5.30;2.47;;;;;;;;;;5102245;28;20027;-55
2021/12/12 00:16:40;;;;;;;4.88;2.38;;;;;;;;;;5100230;27;20121;-53
2021/12/12 00:19:06;;;;;;;6.40;2.60;;;;;;;;;;5077802;28;20116;-55
2021/12/12 00:21:33;;;;;;;5.75;2.10;;;;;;;;;;5095265;28;20065;-53
2021/12/12 00:24:01;;;;;;;4.05;2.20;;;;;;;;;;5098877;28;20047;-55
2021/12/12 00:26:27;;;;;;;5.20;2.30;;;;;;;;;;5103641;27;20033;-50
2021/12/12 00:28:53;;;;;;;3.55;2.20;;;;;;;;;;5103591;27;20042;-53
2021/12/12 00:31:22;;;;;;;4.78;2.42;;;;;;;;;;5096986;27;20106;-55
2021/12/12 00:33:52;;;;;;;4.82;2.28;;;;;;;;;;5094606;28;20032;-56
2021/12/12 00:36:19;;;;;;;5.32;2.58;;;;;;;;;;5111273;27;20108;-54
2021/12/12 00:38:54;;;;;;;4.47;2.13;;;;;;;;;;5103643;27;20042;-53
2021/12/12 00:41:52;;;;;;;5.25;2.25;;;;;;;;;;5098738;28;20040;-54
2021/12/12 00:44:19;;;;;;;2.70;1.88;;;;;;;;;;5061874;28;20056;-53
2021/12/12 00:46:46;;;;;;;4.35;1.90;;;;;;;;;;5065259;28;20036;-53
2021/12/12 00:49:14;;;;;;;6.80;2.33;;;;;;;;;;5061533;28;20045;-53
2021/12/12 00:51:43;;;;;;;4.85;1.70;;;;;;;;;;5065535;28;20393;-53
2021/12/12 00:54:10;;;;;;;7.07;2.40;;;;;;;;;;5063281;28;20081;-53
2021/12/12 00:56:37;;;;;;;3.33;1.75;;;;;;;;;;5063625;28;20032;-55
2021/12/12 00:59:04;;;;;;;4.35;1.88;;;;;;;;;;5062068;28;20104;-54
2021/12/12 01:01:35;;;;;;;5.45;2.33;;;;;;;;;;5064217;28;20044;-55
2021/12/12 01:04:08;;;;;;;7.03;2.00;;;;;;;;;;5063645;28;20040;-56
2021/12/12 01:06:35;;;;;;;5.07;1.55;;;;;;;;;;5066075;28;20108;-56
2021/12/12 01:09:05;;;;;;;6.38;2.38;;;;;;;;;;5064525;28;20072;-51
2021/12/12 01:11:36;;;;;;;4.03;2.45;;;;;;;;;;5059651;28;20501;-53
2021/12/12 01:14:06;;;;;;;5.60;2.22;;;;;;;;;;5065038;28;20032;-55
2021/12/12 01:16:39;;;;;;;6.57;2.25;;;;;;;;;;5061981;28;20140;-54
2021/12/12 01:19:10;;;;;;;6.38;2.00;;;;;;;;;;5065020;28;20028;-55
2021/12/12 01:21:46;;;;;;;6.82;2.20;;;;;;;;;;5088821;28;20089;-50
2021/12/12 01:24:19;;;;;;;4.75;2.45;;;;;;;;;;5100948;27;20051;-55
2021/12/12 01:26:47;;;;;;;3.53;1.90;;;;;;;;;;5102285;28;20039;-55
2021/12/12 01:29:13;;;;;;;4.82;2.05;;;;;;;;;;5100138;27;20119;-52
2021/12/12 01:31:46;;;;;;;6.57;2.28;;;;;;;;;;5102990;27;20039;-54
2021/12/12 01:34:17;;;;;;;4.88;2.17;;;;;;;;;;5097377;28;20031;-54
2021/12/12 01:37:06;;;;;;;5.70;2.13;;;;;;;;;;5095183;28;20036;-49
2021/12/12 01:39:38;;;;;;;5.30;2.15;;;;;;;;;;5093166;28;20028;-55
2021/12/12 01:42:08;;;;;;;3.35;1.80;;;;;;;;;;5101631;28;20082;-54
2021/12/12 01:45:09;;;;;;;3.47;1.88;;;;;;;;;;5084345;28;20117;-53
2021/12/12 01:47:41;;;;;;;6.47;1.98;;;;;;;;;;5065048;28;20040;-52
2021/12/12 01:50:21;;;;;;;4.00;2.25;;;;;;;;;;5064187;28;20056;-55
2021/12/12 01:52:48;;;;;;;7.65;2.38;;;;;;;;;;5059025;28;20517;-54
2021/12/12 01:55:24;;;;;;;5.95;2.30;;;;;;;;;;5064438;28;20071;-55
2021/12/12 01:57:52;;;;;;;7.68;3.00;;;;;;;;;;5059850;28;20055;-55
2021/12/12 02:00:27;;;;;;;3.83;2.05;;;;;;;;;;5064063;28;20032;-53
2021/12/12 02:02:53;;;;;;;4.38;2.85;;;;;;;;;;5065567;28;20592;-50
2021/12/12 02:05:20;;;;;;;5.80;2.50;;;;;;;;;;5061142;28;20136;-50
2021/12/12 02:07:54;;;;;;;5.82;2.70;;;;;;;;;;5060204;28;20548;-55
2021/12/12 02:10:28;;;;;;;6.15;2.22;;;;;;;;;;5060967;28;20032;-56
2021/12/12 02:12:56;;;;;;;7.05;2.38;;;;;;;;;;5059723;28;20036;-53
2021/12/12 02:15:23;;;;;;;6.55;2.42;;;;;;;;;;5061409;28;20160;-55
2021/12/12 02:17:50;;;;;;;6.43;2.47;;;;;;;;;;5063214;28;20493;-55
2021/12/12 02:20:35;;;;;;;6.65;2.78;;;;;;;;;;5048883;28;20036;-52
2021/12/12 02:23:14;;;;;;;5.90;2.45;;;;;;;;;;5059730;28;20075;-50
2021/12/12 02:36:51;;;;;;;4.55;1.92;;;;;;;;;;5102431;28;20039;-53
2021/12/12 02:39:17;;;;;;;4.03;2.10;;;;;;;;;;5100339;28;20027;-50
2021/12/12 02:41:52;;;;;;;4.32;2.35;;;;;;;;;;5103086;27;20032;-54
2021/12/12 02:44:23;;;;;;;2.72;1.80;;;;;;;;;;5094558;28;20035;-56
2021/12/12 02:46:50;;;;;;;7.70;2.33;;;;;;;;;;5076603;28;20142;-55
2021/12/12 02:49:36;;;;;;;3.95;1.75;;;;;;;;;;5106011;27;20547;-52
2021/12/12 02:52:07;;;;;;;6.55;2.28;;;;;;;;;;5094252;28;20035;-53
2021/12/12 02:54:34;;;;;;;6.70;2.42;;;;;;;;;;5096178;28;20028;-51
2021/12/12 02:57:00;;;;;;;2.75;1.80;;;;;;;;;;5094059;28;20364;-50
2021/12/12 02:59:25;;;;;;;4.82;2.08;;;;;;;;;;5096265;28;20173;-54
2021/12/12 03:02:01;;;;;;;6.20;2.22;;;;;;;;;;5095263;28;20123;-53
2021/12/12 03:04:27;;;;;;;5.85;1.60;;;;;;;;;;5101889;28;20028;-52
2021/12/12 03:06:54;;;;;;;2.72;1.70;;;;;;;;;;5095667;28;20118;-52
2021/12/12 03:09:29;;;;;;;3.72;2.13;;;;;;;;;;5099715;28;20032;-55
2021/12/12 03:12:00;;;;;;;6.70;1.80;;;;;;;;;;5102730;28;20039;-51
2021/12/12 03:14:34;;;;;;;7.93;2.17;;;;;;;;;;5101573;28;20047;-53
2021/12/12 03:17:03;;;;;;;7.22;2.03;;;;;;;;;;5107246;27;20035;-52
2021/12/12 03:19:29;;;;;;;10.02;2.38;;;;;;;;;;5104379;27;20383;-52
2021/12/12 03:21:56;;;;;;;2.55;1.67;;;;;;;;;;5101517;27;20036;-55
2021/12/12 03:24:25;;;;;;;3.15;2.20;;;;;;;;;;5098226;27;20123;-50
2021/12/12 03:26:57;;;;;;;5.53;2.13;;;;;;;;;;5099249;28;20426;-51
2021/12/12 03:29:26;;;;;;;6.22;2.20;;;;;;;;;;5098837;28;20042;-54
2021/12/12 03:31:57;;;;;;;2.90;1.88;;;;;;;;;;5109996;27;20033;-55
2021/12/12 03:34:28;;;;;;;3.60;2.30;;;;;;;;;;5103920;27;20028;-56
2021/12/12 03:36:53;;;;;;;5.60;2.08;;;;;;;;;;5098993;28;20279;-52
2021/12/12 03:39:27;;;;;;;4.10;1.90;;;;;;;;;;5099570;27;20087;-55
2021/12/12 03:41:56;;;;;;;3.92;1.55;;;;;;;;;;5105134;27;20080;-56
2021/12/12 03:44:25;;;;;;;3.45;1.90;;;;;;;;;;5099263;27;20032;-55
2021/12/12 03:46:58;;;;;;;3.85;2.50;;;;;;;;;;5105247;27;20035;-50
2021/12/12 03:49:24;;;;;;;7.05;1.90;;;;;;;;;;5097282;28;20020;-56
2021/12/12 03:51:51;;;;;;;3.20;2.17;;;;;;;;;;5095585;27;20107;-54
2021/12/12 03:54:18;;;;;;;5.65;2.00;;;;;;;;;;5102118;27;20487;-52
2021/12/12 03:56:45;;;;;;;4.40;1.80;;;;;;;;;;5089740;28;20032;-55
2021/12/12 03:59:13;;;;;;;2.88;1.70;;;;;;;;;;5099701;27;20031;-49
2021/12/12 04:01:48;;;;;;;6.97;2.33;;;;;;;;;;5099247;28;20114;-54
2021/12/12 04:04:21;;;;;;;5.53;1.98;;;;;;;;;;5086713;28;20115;-53
2021/12/12 04:06:48;;;;;;;3.38;1.70;;;;;;;;;;5093219;28;20048;-54
2021/12/12 04:09:15;;;;;;;3.78;2.08;;;;;;;;;;5095972;27;20032;-55
2021/12/12 04:11:46;;;;;;;2.13;1.55;;;;;;;;;;5098909;28;20062;-52
2021/12/12 04:14:13;;;;;;;3.33;1.40;;;;;;;;;;5099951;27;20078;-54
2021/12/12 04:16:41;;;;;;;6.78;2.22;;;;;;;;;;5103527;27;20024;-55
2021/12/12 04:19:08;;;;;;;4.95;1.90;;;;;;;;;;5100738;28;20032;-54
2021/12/12 04:21:36;;;;;;;3.88;1.85;;;;;;;;;;5083817;28;20408;-55
2021/12/12 04:24:03;;;;;;;5.18;2.45;;;;;;;;;;5098592;27;20067;-56
2021/12/12 04:26:36;;;;;;;5.07;2.75;;;;;;;;;;5100024;27;20039;-49
2021/12/12 04:29:01;;;;;;;;;;;;;;;;;;5102119;27;20388;-54
2021/12/12 04:31:28;;;;;;;3.67;2.13;;;;;;;;;;5102969;27;19916;-52
2021/12/12 04:33:54;;;;;;;7.72;2.05;;;;;;;;;;5100968;27;20102;-54
2021/12/12 04:36:33;;;;;;;6.82;1.77;;;;;;;;;;5108692;27;20111;-54
2021/12/12 04:39:03;;;;;;;2.90;1.33;;;;;;;;;;5100061;27;20032;-54
2021/12/12 04:41:30;;;;;;;6.95;1.30;;;;;;;;;;5102475;27;20418;-55
2021/12/12 04:43:55;;;;;;;2.88;1.60;;;;;;;;;;5099930;28;20031;-54
2021/12/12 04:46:26;;;;;;;5.07;1.90;;;;;;;;;;5107844;27;20380;-51
2021/12/12 04:51:46;;;;;;;5.30;1.80;;;;;;;;;;5095915;27;20420;-51
2021/12/12 04:54:47;;;;;;;2.80;1.52;;;;;;;;;;5102217;27;20034;-53
2021/12/12 04:57:36;;;;;;;4.28;1.80;;;;;;;;;;5099329;28;20015;-50
2021/12/12 05:00:27;;;;;;;3.38;1.65;;;;;;;;;;5094215;27;20064;-55
2021/12/12 05:03:09;;;;;;;2.53;2.22;;;;;;;;;;5103538;27;20030;-52
2021/12/12 05:05:58;;;;;;;4.50;2.10;;;;;;;;;;5099065;28;21069;-53
2021/12/12 05:08:32;;;;;;;2.22;1.70;;;;;;;;;;5100048;27;20024;-54
2021/12/12 05:11:05;;;;;;;2.65;1.58;;;;;;;;;;5105953;27;20032;-50
2021/12/12 05:13:42;;;;;;;3.67;1.55;;;;;;;;;;5102147;27;20107;-53
2021/12/12 05:16:16;;;;;;;4.90;2.08;;;;;;;;;;5100323;27;20104;-53
2021/12/12 05:18:50;;;;;;;3.63;1.60;;;;;;;;;;5101559;27;20076;-52
2021/12/12 05:21:23;;;;;;;3.38;1.60;;;;;;;;;;5096187;28;20038;-50
2021/12/12 05:23:52;;;;;;;5.78;2.10;;;;;;;;;;5094983;28;20440;-53
2021/12/12 05:26:25;;;;;;;2.88;1.77;;;;;;;;;;5094105;27;20492;-56
2021/12/12 05:28:59;;;;;;;6.18;1.98;;;;;;;;;;5101253;27;20028;-55
2021/12/12 05:31:26;;;;;;;4.57;2.22;;;;;;;;;;5099627;28;20028;-54
2021/12/12 05:33:54;;;;;;;3.35;1.90;;;;;;;;;;5096258;28;20027;-52
2021/12/12 05:36:21;;;;;;;2.70;1.90;;;;;;;;;;5095308;27;20056;-55
2021/12/12 05:38:48;;;;;;;6.55;2.08;;;;;;;;;;5100944;28;20035;-56
2021/12/12 05:41:19;;;;;;;2.65;1.63;;;;;;;;;;5104789;27;20030;-53
2021/12/12 05:43:53;;;;;;;5.00;2.20;;;;;;;;;;5103360;28;20028;-51
2021/12/12 05:46:20;;;;;;;3.60;2.50;;;;;;;;;;5098665;27;20206;-52
2021/12/12 05:48:48;;;;;;;6.03;2.50;;;;;;;;;;5095607;27;20031;-50
2021/12/12 05:51:15;;;;;;;6.55;2.33;;;;;;;;;;5098114;27;20495;-52
2021/12/12 05:53:42;;;;;;;5.72;3.30;;;;;;;;;;5101702;27;20039;-50
2021/12/12 05:56:08;;;;;;;3.42;2.38;;;;;;;;;;5101065;27;20036;-54
2021/12/12 05:58:36;;;;;;;7.93;6.03;;;;;;;;;;5099706;28;20084;-55
2021/12/12 06:01:06;;;;;;;4.30;2.70;;;;;;;;;;5082332;28;20032;-55
2021/12/12 06:03:37;;;;;;;3.75;2.33;;;;;;;;;;5102043;28;20028;-53
2021/12/12 06:06:05;;;;;;;4.22;2.95;;;;;;;;;;5078808;28;20035;-53
2021/12/12 06:08:32;;;;;;;6.45;2.85;;;;;;;;;;5098078;27;20027;-55
2021/12/12 06:10:59;;;;;;;3.15;2.28;;;;;;;;;;5104540;28;20442;-52
2021/12/12 06:13:26;;;;;;;6.97;2.22;;;;;;;;;;5100893;27;20024;-52
2021/12/12 06:15:54;;;;;;;3.78;2.10;;;;;;;;;;5098949;27;20032;-52
2021/12/12 06:18:25;;;;;;;4.10;2.33;;;;;;;;;;5106896;27;20460;-50
2021/12/12 06:20:52;;;;;;;3.67;2.40;;;;;;;;;;5090877;28;20027;-53
2021/12/12 06:23:18;;;;;;;5.82;2.60;;;;;;;;;;5103052;27;20043;-51
2021/12/12 06:25:45;;;;;;;7.18;2.45;;;;;;;;;;5096797;27;20105;-54
2021/12/12 06:28:17;;;;;;;5.55;2.50;;;;;;;;;;5093333;28;20119;-53
2021/12/12 06:30:43;;;;;;;4.82;3.20;;;;;;;;;;5095953;28;20034;-51
2021/12/12 06:33:10;;;;;;;5.57;3.72;;;;;;;;;;5096945;27;20023;-55
2021/12/12 06:35:37;;;;;;;9.50;6.70;;;;;;;;;;5098939;28;20039;-52
2021/12/12 06:38:06;;;;;;;8.98;6.05;;;;;;;;;;5098384;27;20050;-51
2021/12/12 06:40:32;;;;;;;6.10;4.38;;;;;;;;;;5093223;27;20085;-54
2021/12/12 06:43:05;;;;;;;4.53;3.10;;;;;;;;;;5101353;27;20078;-54
2021/12/12 06:45:32;;;;;;;7.85;4.20;;;;;;;;;;5101626;27;20032;-56
2021/12/12 06:47:59;;;;;;;4.55;3.17;;;;;;;;;;5102770;28;20463;-52
2021/12/12 06:50:27;;;;;;;5.18;2.78;;;;;;;;;;5097358;28;20089;-52
2021/12/12 06:52:55;;;;;;;4.72;2.63;;;;;;;;;;5098933;28;20032;-50
2021/12/12 06:55:21;;;;;;;7.53;3.35;;;;;;;;;;5097246;28;20122;-55
2021/12/12 06:57:48;;;;;;;5.70;3.10;;;;;;;;;;5096827;27;20042;-55
2021/12/12 07:00:19;;;;;;;4.82;3.05;;;;;;;;;;5100198;28;20032;-54
2021/12/12 07:02:46;;;;;;;7.72;3.20;;;;;;;;;;5093446;28;20031;-53
2021/12/12 07:05:18;;;;;;;5.70;3.03;;;;;;;;;;5083329;28;20107;-52
2021/12/12 07:07:46;;;;;;;4.03;3.20;;;;;;;;;;5093094;28;20034;-52
2021/12/12 07:10:14;;;;;;;7.45;3.05;;;;;;;;;;5099540;28;20357;-52
2021/12/12 07:12:41;;;;;;;5.30;3.25;;;;;;;;;;5105999;28;20031;-52
2021/12/12 07:15:10;;;;;;;7.10;3.50;;;;;;;;;;5096274;28;20119;-51
2021/12/12 07:17:37;;;;;;;4.97;3.55;;;;;;;;;;5093117;28;20474;-50
2021/12/12 07:20:07;;;;;;;5.18;3.30;;;;;;;;;;5076297;28;20031;-53
2021/12/12 07:22:33;;;;;;;5.63;3.65;;;;;;;;;;5099191;28;20032;-53
2021/12/12 07:25:01;;;;;;;5.50;3.60;;;;;;;;;;5097397;28;20040;-50
2021/12/12 07:27:27;;;;;;;4.82;3.60;;;;;;;;;;5096466;28;20028;-52
2021/12/12 07:29:55;;;;;;;6.88;3.20;;;;;;;;;;5095773;28;20020;-53
2021/12/12 07:32:24;;;;;;;5.30;3.33;;;;;;;;;;5099691;28;20495;-53
2021/12/12 07:34:50;;;;;;;5.80;3.80;;;;;;;;;;5082039;28;20031;-52
2021/12/12 07:37:16;;;;;;;7.45;4.55;;;;;;;;;;5102690;28;20024;-53
2021/12/12 07:39:43;;;;;;;6.07;4.00;;;;;;;;;;5097772;28;20050;-56
2021/12/12 07:42:10;;;;;;;6.28;3.67;;;;;;;;;;5095291;28;20404;-53
2021/12/12 07:44:40;;;;;;;7.68;4.25;;;;;;;;;;5091668;28;20036;-52
2021/12/12 07:47:08;;;;;;;7.35;3.63;;;;;;;;;;5101901;28;20028;-55
2021/12/12 07:49:39;;;;;;;5.63;3.60;;;;;;;;;;5100714;28;20576;-53
2021/12/12 07:52:08;;;;;;;6.93;3.95;;;;;;;;;;5099991;28;20032;-52
2021/12/12 07:54:35;;;;;;;5.85;3.97;;;;;;;;;;5097867;28;20027;-56
2021/12/12 07:57:01;;;;;;;5.57;3.70;;;;;;;;;;5096097;28;20027;-49
2021/12/12 07:59:27;;;;;;;7.93;3.80;;;;;;;;;;5094984;28;20027;-54
2021/12/12 08:01:54;;;;;;;10.80;3.92;;;;;;;;;;5097035;28;20055;-53
2021/12/12 08:04:24;;;;;;;5.47;3.42;;;;;;;;;;5103415;27;20386;-48
2021/12/12 08:06:50;;;;;;;5.95;3.60;;;;;;;;;;5102816;27;20028;-56
2021/12/12 08:09:17;;;;;;;5.57;4.70;;;;;;;;;;5108814;28;20020;-54
2021/12/12 08:11:44;;;;;;;7.15;4.93;;;;;;;;;;5102741;27;20104;-50
2021/12/12 08:14:14;;;;;;;4.10;3.67;;;;;;;;;;5082441;28;20035;-51
2021/12/12 08:16:40;;;;;;;4.53;3.70;;;;;;;;;;5099562;27;20036;-53
2021/12/12 08:19:07;;;;;;;9.43;2.65;;;;;;;;;;5093779;27;20196;-54
2021/12/12 08:21:33;;;;;;;2.00;1.65;;;;;;;;;;5095695;28;20028;-55
2021/12/12 08:24:05;;;;;;;1.42;1.33;;;;;;;;;;5101391;27;20048;-56
2021/12/12 08:26:33;;;;;;;3.13;1.98;;;;;;;;;;5101771;27;20039;-55
2021/12/12 08:28:58;;;;;;;4.90;1.60;;;;;;;;;;5099118;28;20503;-55
2021/12/12 08:31:26;;;;;;;7.53;3.58;;;;;;;;;;5095615;28;20024;-54
2021/12/12 08:33:52;;;;;;;10.02;5.03;;;;;;;;;;5106202;27;20119;-56
2021/12/12 08:36:18;;;;;;;8.82;5.30;;;;;;;;;;5098413;27;20031;-54
2021/12/12 08:38:44;;;;;;;8.05;5.30;;;;;;;;;;5100553;28;20038;-53
2021/12/12 08:41:10;;;;;;;6.32;4.72;;;;;;;;;;5103296;27;20028;-50
2021/12/12 08:43:36;;;;;;;11.27;5.13;;;;;;;;;;5094465;28;20380;-50
2021/12/12 08:46:09;;;;;;;7.53;4.15;;;;;;;;;;5102833;27;20027;-51
2021/12/12 08:48:39;;;;;;;5.80;4.00;;;;;;;;;;5104086;27;20481;-53
2021/12/12 08:51:11;;;;;;;8.07;3.72;;;;;;;;;;5101061;27;20036;-55
2021/12/12 08:53:40;;;;;;;7.57;3.30;;;;;;;;;;5101295;27;20023;-55
2021/12/12 08:56:09;;;;;;;4.05;3.50;;;;;;;;;;5095498;28;20032;-54
2021/12/12 08:58:35;;;;;;;5.55;3.30;;;;;;;;;;5116798;27;20020;-56
2021/12/12 09:01:11;;;;;;;9.88;3.90;;;;;;;;;;5103032;28;20028;-53
2021/12/12 09:03:47;;;;;;;5.72;4.28;;;;;;;;;;5096120;27;20091;-55
2021/12/12 09:06:14;;;;;;;9.18;4.18;;;;;;;;;;5099089;28;20085;-54
2021/12/12 09:08:50;;;;;;;6.90;3.75;;;;;;;;;;5088257;28;20040;-52
2021/12/12 09:11:27;;;;;;;9.25;4.22;;;;;;;;;;5098930;27;20047;-51
2021/12/12 09:13:59;;;;;;;5.50;3.72;;;;;;;;;;5102474;28;20028;-53
2021/12/12 09:16:47;;;;;;;6.07;4.00;;;;;;;;;;5096825;28;20039;-56
2021/12/12 09:19:24;;;;;;;6.43;3.60;;;;;;;;;;5101083;27;20032;-55
2021/12/12 09:22:01;;;;;;;8.25;5.38;;;;;;;;;;5096644;27;20032;-56
2021/12/12 09:24:30;;;;;;;14.02;4.82;;;;;;;;;;5104264;27;20054;-54
2021/12/12 09:27:00;;;;;;;12.20;4.93;;;;;;;;;;5094625;28;20473;-55
2021/12/12 09:29:38;;;;;;;7.13;4.10;;;;;;;;;;5096135;28;20030;-54
2021/12/12 09:32:16;;;;;;;6.32;3.90;;;;;;;;;;5078716;28;20366;-55
2021/12/12 09:34:55;;;;;;;5.22;3.80;;;;;;;;;;5103636;27;20102;-54
2021/12/12 09:37:46;;;;;;;11.32;4.35;;;;;;;;;;5097502;27;20022;-55
2021/12/12 09:40:50;;;;;;;11.65;4.82;;;;;;;;;;5090905;28;20388;-53
2021/12/12 09:43:17;;;;;;;6.80;4.53;;;;;;;;;;5044572;28;20960;-53
2021/12/12 09:45:57;;;;;;;5.88;3.63;;;;;;;;;;5045577;28;20041;-56
2021/12/12 09:51:14;;;;;;;5.63;2.70;;;;;;;;;;5042574;28;20056;-53
2021/12/12 09:51:47;;;;;;;3.30;2.22;;;;;;;;;;5040933;28;20474;-56
2021/12/12 09:54:45;;;;;;;4.03;2.35;;;;;;;;;;5038883;28;20106;-55
2021/12/12 09:57:26;;;;;;;2.88;2.20;;;;;;;;;;5040299;28;20123;-56
2021/12/12 10:00:03;;;;;;;4.55;1.98;;;;;;;;;;5042908;28;20041;-55
2021/12/12 10:02:38;;;;;;;3.28;2.03;;;;;;;;;;5038372;28;20037;-55
2021/12/12 10:05:33;;;;;;;3.67;1.80;;;;;;;;;;5042888;28;20965;-55
2021/12/12 10:08:04;;;;;;;5.90;1.83;;;;;;;;;;5045639;28;20041;-53
2021/12/12 10:10:42;;;;;;;2.20;1.80;;;;;;;;;;5044475;28;20079;-54
2021/12/12 10:13:39;;;;;;;2.75;1.70;;;;;;;;;;5041598;28;20029;-51
2021/12/12 10:16:19;;;;;;;4.45;1.70;;;;;;;;;;5018081;28;20029;-54
2021/12/12 10:18:51;;;;;;;1.63;1.52;;;;;;;;;;5041912;28;20033;-53
2021/12/12 10:22:03;;;;;;;1.63;1.52;;;;;;;;;;5080358;27;20036;-53
2021/12/12 10:25:05;;;;;;;2.30;2.10;;;;;;;;;;5081819;28;20048;-51
2021/12/12 10:27:39;;;;;;;1.60;1.50;;;;;;;;;;5097518;28;20483;-53
2021/12/12 10:30:08;;;;;;;2.58;1.67;;;;;;;;;;5096972;28;20025;-55
2021/12/12 10:32:47;;;;;;;3.38;1.40;;;;;;;;;;5099949;28;20057;-52
2021/12/12 10:35:27;;;;;;;2.20;1.85;;;;;;;;;;5095036;28;20035;-52
2021/12/12 10:38:09;;;;;;;1.70;1.42;;;;;;;;;;5099807;28;20047;-56
2021/12/12 10:40:45;;;;;;;2.78;1.77;;;;;;;;;;5101449;27;20035;-53
2021/12/12 10:43:22;;;;;;;4.50;1.98;;;;;;;;;;5099424;27;20115;-47
2021/12/12 10:45:56;;;;;;;1.70;1.60;;;;;;;;;;5084298;28;20028;-54
2021/12/12 10:48:30;;;;;;;3.13;1.88;;;;;;;;;;5099063;28;20408;-51
2021/12/12 10:51:12;;;;;;;2.30;2.10;;;;;;;;;;5088965;28;20032;-50
2021/12/12 10:53:45;;;;;;;;;;;;;;;;;;5095643;28;20481;-49
2021/12/12 10:56:36;;;;;;;3.67;1.70;;;;;;;;;;5097918;28;19938;-48
2021/12/12 10:59:30;;;;;;;2.58;1.83;;;;;;;;;;5092022;28;20071;-52
2021/12/12 11:02:02;;;;;;;13.00;2.40;;;;;;;;;;5097680;28;20493;-51
2021/12/12 11:04:56;;;;;;;7.82;3.05;;;;;;;;;;5077430;28;20096;-47
2021/12/12 11:07:35;;;;;;;1.95;1.75;;;;;;;;;;5102085;28;20387;-47
2021/12/12 11:10:16;;;;;;;3.50;1.90;;;;;;;;;;5095384;28;20055;-54
2021/12/12 11:13:06;;;;;;;5.90;2.10;;;;;;;;;;5104463;28;20034;-50
2021/12/12 11:15:46;;;;;;;2.75;2.28;;;;;;;;;;5096310;28;20036;-55
2021/12/12 11:18:24;;;;;;;2.85;2.08;;;;;;;;;;5098968;28;20034;-53
2021/12/12 11:21:04;;;;;;;4.15;2.17;;;;;;;;;;5095820;28;20035;-56
2021/12/12 11:24:00;;;;;;;2.55;1.85;;;;;;;;;;5095793;28;20027;-55
2021/12/12 11:26:34;;;;;;;2.92;1.90;;;;;;;;;;5096914;28;20488;-53
2021/12/12 11:29:04;;;;;;;2.38;1.65;;;;;;;;;;5097142;28;20560;-53
2021/12/12 11:31:51;;;;;;;2.88;2.30;;;;;;;;;;5098745;28;20061;-53
2021/12/12 11:34:19;;;;;;;4.72;2.00;;;;;;;;;;5098652;28;20039;-53
2021/12/12 11:36:51;;;;;;;2.35;2.10;;;;;;;;;;5095818;27;20507;-49
2021/12/12 11:39:21;;;;;;;8.32;2.20;;;;;;;;;;5101576;27;20391;-53
2021/12/12 11:42:07;;;;;;;1.65;1.55;;;;;;;;;;5099406;27;20044;-53
2021/12/12 11:44:41;;;;;;;2.10;1.50;;;;;;;;;;5093537;28;20036;-49
2021/12/12 11:47:10;;;;;;;1.88;1.65;;;;;;;;;;5082141;28;20059;-51
2021/12/12 11:50:04;;;;;;;2.55;1.65;;;;;;;;;;5095051;28;20108;-56
2021/12/12 11:52:45;;;;;;;4.07;1.50;;;;;;;;;;5101982;27;20106;-54
2021/12/12 11:55:23;;;;;;;3.10;2.00;;;;;;;;;;5102687;27;20034;-53
2021/12/12 11:58:06;;;;;;;2.08;1.58;;;;;;;;;;5094069;28;20097;-54
2021/12/12 12:00:37;;;;;;;3.13;1.55;;;;;;;;;;5100526;27;20038;-55
2021/12/12 12:03:13;;;;;;;4.15;1.80;;;;;;;;;;5100738;28;20061;-51
2021/12/12 12:05:54;;;;;;;1.70;1.60;;;;;;;;;;5082839;28;20114;-54
2021/12/12 12:08:27;;;;;;;2.22;1.80;;;;;;;;;;5100576;28;20051;-51
2021/12/12 12:11:11;;;;;;;3.28;1.70;;;;;;;;;;5103185;28;20138;-53
2021/12/12 12:13:50;;;;;;;2.53;2.33;;;;;;;;;;5101271;27;20031;-55
2021/12/12 12:16:35;;;;;;;4.18;1.90;;;;;;;;;;5100199;28;20027;-52
2021/12/12 12:19:20;;;;;;;2.40;1.73;;;;;;;;;;5104555;28;20024;-52
2021/12/12 12:21:52;;;;;;;4.10;2.25;;;;;;;;;;5099441;28;20093;-51
2021/12/12 12:24:38;;;;;;;3.35;2.30;;;;;;;;;;5099571;28;20044;-53
2021/12/12 12:27:08;;;;;;;3.20;1.80;;;;;;;;;;5101578;28;20042;-55
2021/12/12 12:30:11;;;;;;;2.30;2.10;;;;;;;;;;5101274;28;20022;-53
2021/12/12 12:33:12;;;;;;;1.63;1.48;;;;;;;;;;5098967;28;20533;-52
2021/12/12 12:35:59;;;;;;;1.80;1.70;;;;;;;;;;5101300;28;20020;-51
2021/12/12 12:38:52;;;;;;;2.17;1.95;;;;;;;;;;5095281;28;20063;-52
2021/12/12 12:41:56;;;;;;;4.32;1.90;;;;;;;;;;5099663;28;20048;-52
2021/12/12 12:44:59;;;;;;;3.50;2.13;;;;;;;;;;5096898;28;20098;-50
2021/12/12 12:47:40;;;;;;;4.07;3.45;;;;;;;;;;5104254;27;20031;-51
2021/12/12 12:50:35;;;;;;;3.67;2.38;;;;;;;;;;5102507;27;20028;-54
2021/12/12 12:53:10;;;;;;;3.50;2.58;;;;;;;;;;5094537;28;20084;-56
2021/12/12 12:55:51;;;;;;;4.35;2.22;;;;;;;;;;5098052;27;20064;-53
2021/12/12 12:58:35;;;;;;;4.03;2.90;;;;;;;;;;5105739;28;20067;-54
2021/12/12 13:01:20;;;;;;;3.40;2.75;;;;;;;;;;5096231;27;20027;-49
2021/12/12 13:04:06;;;;;;;4.97;2.55;;;;;;;;;;5094140;28;20043;-55
2021/12/12 13:07:14;;;;;;;4.15;2.78;;;;;;;;;;5099130;27;20031;-56
2021/12/12 13:10:09;;;;;;;2.60;2.13;;;;;;;;;;5094556;27;20486;-51
2021/12/12 13:12:54;;;;;;;2.90;2.60;;;;;;;;;;5095978;28;20032;-52
2021/12/12 13:15:41;;;;;;;3.28;2.30;;;;;;;;;;5097881;28;20027;-53
2021/12/12 13:18:25;;;;;;;4.68;2.17;;;;;;;;;;5105540;28;20039;-55
2021/12/12 13:20:53;;;;;;;3.42;2.50;;;;;;;;;;5106980;28;20110;-50
2021/12/12 13:23:38;;;;;;;3.17;2.17;;;;;;;;;;5105854;28;20043;-53
2021/12/12 13:26:11;;;;;;;4.03;2.50;;;;;;;;;;5094319;28;20163;-54
2021/12/12 13:29:13;;;;;;;2.80;2.45;;;;;;;;;;5098767;27;20039;-55
2021/12/12 13:31:44;;;;;;;2.10;1.90;;;;;;;;;;5095062;27;20032;-50
2021/12/12 13:34:35;;;;;;;3.10;2.80;;;;;;;;;;5101486;28;20027;-56
2021/12/12 13:37:19;;;;;;;5.00;3.60;;;;;;;;;;5094486;27;20036;-55
2021/12/12 13:40:11;;;;;;;2.33;2.13;;;;;;;;;;5097370;28;20028;-54
2021/12/12 13:42:45;;;;;;;2.35;2.15;;;;;;;;;;5094937;28;20044;-50
2021/12/12 13:45:50;;;;;;;2.42;2.22;;;;;;;;;;5092677;28;20028;-53
2021/12/12 13:48:28;;;;;;;4.55;2.67;;;;;;;;;;5108617;27;20084;-50
2021/12/12 13:51:30;;;;;;;3.90;2.47;;;;;;;;;;5096381;27;20032;-52
2021/12/12 13:54:13;;;;;;;3.03;2.65;;;;;;;;;;5087612;28;20122;-55
2021/12/12 13:57:06;;;;;;;2.90;2.38;;;;;;;;;;5092626;28;20035;-56
2021/12/12 13:59:52;;;;;;;4.40;2.55;;;;;;;;;;5097527;28;20046;-52
2021/12/12 14:02:19;;;;;;;3.17;2.67;;;;;;;;;;5096103;27;20496;-56
2021/12/12 14:05:04;;;;;;;3.60;2.30;;;;;;;;;;5097069;28;20038;-53
2021/12/12 14:07:39;;;;;;;3.97;2.65;;;;;;;;;;5101817;28;20426;-52
2021/12/12 14:10:15;;;;;;;3.92;2.42;;;;;;;;;;5114139;27;20035;-54
2021/12/12 14:12:48;;;;;;;7.78;2.53;;;;;;;;;;5099978;28;20027;-56
2021/12/12 14:15:26;;;;;;;3.13;2.83;;;;;;;;;;5104895;27;20019;-53
2021/12/12 14:17:55;;;;;;;6.30;3.03;;;;;;;;;;5100386;28;20038;-56
2021/12/12 14:20:29;;;;;;;3.13;2.35;;;;;;;;;;5094761;28;20032;-56
2021/12/12 14:22:57;;;;;;;3.17;2.78;;;;;;;;;;5115636;27;20626;-55
2021/12/12 14:25:24;;;;;;;4.63;2.80;;;;;;;;;;5101093;28;20408;-53
2021/12/12 14:27:53;;;;;;;3.80;2.40;;;;;;;;;;5100424;28;20040;-53
2021/12/12 14:30:21;;;;;;;4.05;2.45;;;;;;;;;;5096142;28;20032;-53
2021/12/12 14:32:56;;;;;;;2.30;2.13;;;;;;;;;;5095928;28;20474;-56
2021/12/12 14:35:28;;;;;;;2.80;2.42;;;;;;;;;;5099148;28;20484;-53
2021/12/12 14:37:55;;;;;;;5.53;2.40;;;;;;;;;;5086042;28;20468;-55
2021/12/12 14:40:24;;;;;;;3.22;2.60;;;;;;;;;;5104013;28;20027;-51
2021/12/12 14:43:00;;;;;;;2.95;2.47;;;;;;;;;;5093769;28;20064;-55
2021/12/12 14:45:39;;;;;;;4.20;3.13;;;;;;;;;;5097527;28;20031;-55
2021/12/12 14:48:13;;;;;;;3.55;2.97;;;;;;;;;;5093119;28;20023;-56
2021/12/12 14:50:54;;;;;;;3.50;2.40;;;;;;;;;;5094115;28;20108;-54
2021/12/12 14:53:23;;;;;;;6.43;3.72;;;;;;;;;;5096006;28;20100;-55
2021/12/12 14:55:57;;;;;;;4.22;3.83;;;;;;;;;;5084452;28;20020;-53
2021/12/12 14:58:27;;;;;;;6.88;3.60;;;;;;;;;;5095883;28;20028;-56
2021/12/12 15:01:03;;;;;;;3.83;2.67;;;;;;;;;;5097288;28;20537;-56
2021/12/12 15:03:43;;;;;;;4.25;2.80;;;;;;;;;;5100244;28;20039;-55
2021/12/12 15:06:13;;;;;;;2.78;2.53;;;;;;;;;;5097833;28;20118;-55
2021/12/12 15:08:43;;;;;;;5.13;3.33;;;;;;;;;;5092280;28;20032;-56
2021/12/12 15:11:14;;;;;;;4.03;3.38;;;;;;;;;;5105561;28;20398;-56
2021/12/12 15:13:43;;;;;;;6.75;5.15;;;;;;;;;;5096545;28;20038;-56
2021/12/12 15:16:13;;;;;;;5.28;3.15;;;;;;;;;;5096701;28;20028;-56
2021/12/12 15:18:46;;;;;;;5.10;3.33;;;;;;;;;;5098546;28;22915;-54
2021/12/12 15:21:35;;;;;;;5.95;3.90;;;;;;;;;;5092011;28;20523;-56
2021/12/12 15:24:24;;;;;;;8.30;5.10;;;;;;;;;;5034760;28;1545347;-52
2021/12/12 15:27:12;;;;;;;6.03;4.43;;;;;;;;;;5097435;28;20111;-54
2021/12/12 15:29:39;;;;;;;5.55;4.65;;;;;;;;;;5095294;28;20043;-51
2021/12/12 15:32:14;;;;;;;6.68;4.75;;;;;;;;;;5095291;28;20032;-55
2021/12/12 15:34:44;;;;;;;7.90;5.63;;;;;;;;;;5099384;28;20080;-56
2021/12/12 15:37:13;;;;;;;5.32;4.38;;;;;;;;;;5098558;28;20062;-50
2021/12/12 15:39:51;;;;;;;11.07;7.70;;;;;;;;;;5094836;28;20123;-56